Time;durP1;ratioP1;P1;durP2;ratioP2;P2;SDS_P1;SDS_P2;PMS_P1;PMS_P2;Temp;Humidity;BMP_temperature;BMP_pressure;BME280_temperature;BME280_humidity;BME280_pressure;Samples;Min_cycle;Max_cycle;Signal;HPM_P1;HPM_P2
2022/01/27 00:05:40;;;;;;;1.00;1.00;;;;;;;3.73;72.13;100623.63;103762;1274;109048;-67
2022/01/27 00:08:15;;;;;;;1.00;1.00;;;;;;;3.75;72.23;100625.40;103896;1274;94622;-67
2022/01/27 00:10:51;;;;;;;0.90;0.90;;;;;;;3.74;71.94;100624.16;103395;1277;137935;-66
2022/01/27 00:13:27;;;;;;;1.00;1.00;;;;;;;3.69;72.12;100629.05;103607;1274;108359;-66
2022/01/27 00:16:13;;;;;;;1.00;1.00;;;;;;;3.59;72.09;100628.83;103524;1274;138516;-65
2022/01/27 00:18:43;;;;;;;1.00;1.00;;;;;;;3.60;72.28;100620.58;103623;1274;108968;-67
2022/01/27 00:21:11;;;;;;;0.90;0.90;;;;;;;3.63;71.91;100614.80;103539;1275;138489;-67
2022/01/27 00:23:41;;;;;;;0.90;0.90;;;;;;;3.60;71.99;100617.25;103587;1274;94736;-68
2022/01/27 00:26:09;;;;;;;1.10;1.10;;;;;;;3.57;72.07;100621.42;103969;1274;109838;-65
2022/01/27 00:28:38;;;;;;;0.90;0.90;;;;;;;3.54;72.24;100617.38;103532;1274;138306;-67
2022/01/27 00:31:06;;;;;;;1.00;1.00;;;;;;;3.54;72.50;100616.51;103653;1274;108932;-67
2022/01/27 00:33:35;;;;;;;0.90;0.90;;;;;;;3.57;72.49;100609.15;103428;1278;138238;-68
2022/01/27 00:36:03;;;;;;;0.90;0.90;;;;;;;3.61;72.44;100609.34;103772;1274;96592;-66
2022/01/27 00:38:32;;;;;;;1.00;1.00;;;;;;;3.54;72.45;100604.91;104108;1274;107931;-65
2022/01/27 00:41:00;;;;;;;0.90;0.90;;;;;;;3.54;72.60;100612.81;103507;1274;138208;-67
2022/01/27 00:43:28;;;;;;;1.00;1.00;;;;;;;3.55;72.46;100613.35;103704;1274;108748;-68
2022/01/27 00:45:56;;;;;;;1.00;1.00;;;;;;;3.57;72.61;100613.37;103516;1274;138942;-67
2022/01/27 00:48:24;;;;;;;0.90;0.90;;;;;;;3.58;72.58;100613.37;103972;1274;95524;-66
2022/01/27 00:50:59;;;;;;;1.00;1.00;;;;;;;3.58;72.55;100611.60;103841;1274;137632;-67
2022/01/27 00:53:41;;;;;;;0.90;0.90;;;;;;;3.63;72.52;100607.27;103548;1275;99997;-65
2022/01/27 00:56:21;;;;;;;1.00;1.00;;;;;;;3.58;72.37;100608.10;103723;1274;108805;-65
2022/01/27 00:59:02;;;;;;;1.00;1.00;;;;;;;3.56;72.40;100613.18;103486;1274;139719;-67
2022/01/27 01:01:36;;;;;;;0.90;0.90;;;;;;;3.59;72.46;100610.04;103580;1274;94414;-67
2022/01/27 01:04:07;;;;;;;1.00;1.00;;;;;;;3.57;72.42;100613.19;103515;1277;137655;-67
2022/01/27 01:06:45;;;;;;;1.00;1.00;;;;;;;3.54;72.54;100614.93;103570;1274;99412;-68
2022/01/27 01:13:25;;;;;;;0.90;0.90;;;;;;;3.63;72.57;100611.48;103321;1274;95466;-67
2022/01/27 01:14:56;;;;;;;1.10;1.10;;;;;;;3.62;72.34;100604.27;103259;1277;138897;-66
2022/01/27 01:17:41;;;;;;;0.90;0.90;;;;;;;3.60;72.51;100605.12;104301;1274;108380;-68
2022/01/27 01:20:44;;;;;;;1.00;1.00;;;;;;;3.56;72.58;100604.92;103637;1274;98787;-66
2022/01/27 01:33:58;;;;;;;1.00;1.00;;;;;;;3.59;72.45;100606.52;103501;1274;141259;-67
2022/01/27 01:36:37;;;;;;;1.00;1.00;;;;;;;3.52;72.75;100609.48;103670;1274;108907;-68
2022/01/27 01:39:06;;;;;;;1.00;1.00;;;;;;;3.58;73.06;100603.54;103538;1274;139017;-67
2022/01/27 01:41:33;;;;;;;0.90;0.90;;;;;;;3.60;72.71;100604.96;103625;1274;94416;-68
2022/01/27 01:44:02;;;;;;;1.00;1.00;;;;;;;3.59;72.92;100604.77;103575;1274;108215;-67
2022/01/27 01:46:29;;;;;;;1.00;1.00;;;;;;;3.53;72.84;100603.34;103535;1274;138159;-67
2022/01/27 01:48:57;;;;;;;1.00;1.00;;;;;;;3.55;72.90;100604.74;103606;1274;108712;-67
2022/01/27 01:51:29;;;;;;;1.00;1.00;;;;;;;3.54;73.11;100598.95;103506;1274;139346;-67
2022/01/27 01:53:57;;;;;;;1.00;1.00;;;;;;;3.55;73.06;100597.20;103526;1274;94320;-67
2022/01/27 01:56:25;;;;;;;1.00;1.00;;;;;;;3.53;73.20;100596.84;103702;1274;108321;-67
2022/01/27 01:58:53;;;;;;;1.00;1.00;;;;;;;3.49;73.24;100598.23;103473;1275;138194;-67
2022/01/27 02:01:21;;;;;;;1.00;1.00;;;;;;;3.46;73.51;100594.35;103503;1275;108836;-67
2022/01/27 02:03:50;;;;;;;1.00;1.00;;;;;;;3.47;73.57;100594.00;103591;1274;139326;-67
2022/01/27 02:06:27;;;;;;;1.00;1.00;;;;;;;3.45;73.55;100592.05;103542;1277;95532;-67
2022/01/27 02:19:56;;;;;;;0.90;0.90;;;;;;;3.38;74.14;100589.20;103618;1274;94353;-66
2022/01/27 02:22:24;;;;;;;1.00;1.00;;;;;;;3.40;74.15;100582.89;103454;1274;138300;-65
2022/01/27 02:24:53;;;;;;;1.00;1.00;;;;;;;3.41;73.94;100576.95;103552;1275;101237;-65
2022/01/27 02:27:22;;;;;;;1.00;1.00;;;;;;;3.42;73.88;100575.02;103402;1277;139153;-67
2022/01/27 02:29:50;;;;;;;0.90;0.90;;;;;;;3.45;73.86;100569.58;103573;1275;94315;-65
2022/01/27 02:32:19;;;;;;;1.00;1.00;;;;;;;3.52;73.96;100569.97;103510;1277;94699;-66
2022/01/27 02:34:48;;;;;;;0.90;0.90;;;;;;;3.47;73.81;100565.73;103496;1277;139893;-67
2022/01/27 02:37:16;;;;;;;1.00;1.00;;;;;;;3.42;73.85;100561.15;103529;1277;99649;-67
2022/01/27 02:39:44;;;;;;;1.00;1.00;;;;;;;3.36;74.14;100556.02;103483;1274;138154;-67
2022/01/27 02:42:20;;;;;;;1.00;1.00;;;;;;;3.41;74.16;100548.84;103622;1274;94334;-66
2022/01/27 02:44:48;;;;;;;1.00;1.00;;;;;;;3.44;74.10;100546.23;103538;1274;139011;-67
2022/01/27 02:47:16;;;;;;;0.90;0.90;;;;;;;3.40;74.25;100544.63;103730;1274;108420;-65
2022/01/27 02:49:44;;;;;;;1.00;1.00;;;;;;;3.36;74.64;100550.23;103853;1274;99328;-67
2022/01/27 02:52:12;;;;;;;1.00;1.00;;;;;;;3.34;74.70;100546.35;103827;1274;138246;-67
2022/01/27 02:54:41;;;;;;;1.00;1.00;;;;;;;3.34;74.84;100547.94;103569;1274;94579;-64
2022/01/27 02:57:23;;;;;;;1.00;1.00;;;;;;;3.35;74.67;100545.66;103685;1274;138790;-66
2022/01/27 02:59:51;;;;;;;0.80;0.80;;;;;;;3.39;74.73;100542.70;103641;1274;108417;-67
2022/01/27 03:02:20;;;;;;;0.90;0.90;;;;;;;3.47;74.50;100540.63;103586;1274;99305;-67
2022/01/27 03:04:48;;;;;;;0.90;0.90;;;;;;;3.52;74.37;100532.41;103623;1274;138294;-65
2022/01/27 03:07:16;;;;;;;0.90;0.90;;;;;;;3.57;74.17;100534.35;103590;1274;94322;-65
2022/01/27 03:09:44;;;;;;;0.90;0.90;;;;;;;3.58;74.01;100533.83;103492;1274;137799;-65
2022/01/27 03:12:12;;;;;;;1.00;1.00;;;;;;;3.54;73.94;100528.73;103574;1274;108339;-67
2022/01/27 03:14:41;;;;;;;1.00;1.00;;;;;;;3.51;74.08;100528.88;103567;1274;98496;-65
2022/01/27 03:17:10;;;;;;;0.90;0.90;;;;;;;3.50;73.97;100526.60;103606;1277;137828;-64
2022/01/27 03:19:38;;;;;;;0.90;0.90;;;;;;;3.48;74.29;100522.91;103564;1276;94350;-66
2022/01/27 03:22:07;;;;;;;1.00;1.00;;;;;;;3.45;74.25;100522.55;103487;1277;137835;-67
2022/01/27 03:24:36;;;;;;;1.20;1.20;;;;;;;3.48;74.28;100519.92;103475;1274;108492;-66
2022/01/27 03:27:12;;;;;;;1.00;1.00;;;;;;;3.49;74.19;100526.79;103386;1275;138888;-65
2022/01/27 03:29:40;;;;;;;0.90;0.90;;;;;;;3.51;74.26;100520.64;103468;1277;107863;-65
2022/01/27 03:32:10;;;;;;;0.90;0.90;;;;;;;3.49;74.29;100523.45;103486;1274;94752;-65
2022/01/27 03:34:38;;;;;;;0.90;0.90;;;;;;;3.57;74.21;100521.55;103759;1274;138806;-65
2022/01/27 03:37:06;;;;;;;0.90;0.90;;;;;;;3.54;74.15;100528.90;103597;1274;108449;-68
2022/01/27 03:39:37;;;;;;;0.90;0.90;;;;;;;3.56;74.14;100526.63;103522;1274;137925;-67
2022/01/27 03:42:06;;;;;;;0.90;0.90;;;;;;;3.56;74.20;100520.14;103614;1274;109068;-67
2022/01/27 03:44:34;;;;;;;1.00;1.00;;;;;;;3.51;74.10;100520.63;104112;1274;94856;-66
2022/01/27 03:47:02;;;;;;;1.00;1.00;;;;;;;3.46;74.38;100520.27;103941;1274;138236;-64
2022/01/27 03:49:30;;;;;;;0.90;0.90;;;;;;;3.39;74.76;100522.52;103931;1272;108590;-67
2022/01/27 03:52:01;;;;;;;0.90;0.90;;;;;;;3.44;74.72;100526.58;103468;1274;139561;-65
2022/01/27 03:54:30;;;;;;;0.90;0.90;;;;;;;3.46;74.66;100528.00;103458;1274;108874;-65
2022/01/27 03:57:00;;;;;;;0.90;0.90;;;;;;;3.57;74.46;100529.97;103442;1274;139192;-65
2022/01/27 03:59:29;;;;;;;0.90;0.90;;;;;;;3.61;74.18;100524.38;107671;1274;92665;-67
2022/01/27 04:01:57;;;;;;;0.90;0.90;;;;;;;3.60;74.05;100523.14;107540;1274;108226;-67
2022/01/27 04:04:26;;;;;;;1.00;1.00;;;;;;;3.59;74.07;100517.34;107544;1274;138323;-66
2022/01/27 04:06:54;;;;;;;1.00;1.00;;;;;;;3.57;73.98;100511.89;104076;1274;109531;-67
2022/01/27 04:09:24;;;;;;;0.90;0.90;;;;;;;3.61;74.05;100507.69;103497;1274;138912;-67
2022/01/27 04:11:53;;;;;;;0.80;0.80;;;;;;;3.69;73.81;100502.27;103615;1274;94329;-67
2022/01/27 04:14:21;;;;;;;0.80;0.80;;;;;;;3.76;73.68;100498.96;103613;1274;108337;-67
2022/01/27 04:16:48;;;;;;;0.90;0.90;;;;;;;3.75;73.41;100491.06;103451;1274;138453;-69
2022/01/27 04:19:16;;;;;;;0.90;0.90;;;;;;;3.64;73.62;100493.83;103561;1275;108770;-65
2022/01/27 04:21:50;;;;;;;1.00;1.00;;;;;;;3.58;73.80;100494.52;103472;1275;138045;-64
2022/01/27 04:24:18;;;;;;;0.90;0.90;;;;;;;3.61;73.83;100496.98;103541;1274;94451;-67
2022/01/27 04:26:50;;;;;;;0.90;0.90;;;;;;;3.55;73.83;100500.13;103579;1275;108321;-65
2022/01/27 04:29:21;;;;;;;1.00;1.00;;;;;;;3.56;74.03;100494.67;103430;1275;138880;-67
2022/01/27 04:31:50;;;;;;;0.90;0.90;;;;;;;3.56;73.69;100492.58;103581;1274;108933;-67
2022/01/27 04:34:20;;;;;;;1.00;1.00;;;;;;;3.52;73.83;100490.45;103400;1275;138360;-65
2022/01/27 04:36:48;;;;;;;0.90;0.90;;;;;;;3.50;73.89;100485.00;103627;1276;94648;-67
2022/01/27 04:39:23;;;;;;;0.90;0.90;;;;;;;3.51;73.68;100481.31;103441;1277;138031;-65
2022/01/27 04:42:08;;;;;;;0.90;0.90;;;;;;;3.48;73.84;100477.10;103488;1274;99196;-67
2022/01/27 04:44:55;;;;;;;0.90;0.90;;;;;;;3.53;74.03;100480.62;103528;1275;108848;-65
2022/01/27 04:47:30;;;;;;;0.80;0.80;;;;;;;3.55;73.80;100475.36;103419;1275;138633;-63
2022/01/27 04:49:59;;;;;;;1.10;1.10;;;;;;;3.56;73.78;100476.77;103564;1274;94662;-65
2022/01/27 04:52:30;;;;;;;0.90;0.90;;;;;;;3.62;73.86;100477.32;103471;1274;138699;-68
2022/01/27 04:55:06;;;;;;;0.90;0.90;;;;;;;3.65;73.41;100473.64;103632;1277;99648;-67
2022/01/27 04:57:36;;;;;;;0.90;0.90;;;;;;;3.65;73.45;100475.92;103386;1274;137945;-65
2022/01/27 05:00:05;;;;;;;0.80;0.80;;;;;;;3.59;73.63;100478.02;103549;1274;94892;-65
2022/01/27 05:02:45;;;;;;;1.10;1.10;;;;;;;3.59;73.57;100485.39;103624;1274;94499;-66
2022/01/27 05:05:18;;;;;;;1.10;1.10;;;;;;;3.56;73.81;100476.42;103548;1274;138299;-67
2022/01/27 05:07:56;;;;;;;0.90;0.90;;;;;;;3.56;73.59;100471.67;103587;1274;99184;-67
2022/01/27 05:10:29;;;;;;;0.90;0.90;;;;;;;3.59;73.73;100466.60;103472;1274;138777;-68
2022/01/27 05:13:06;;;;;;;0.90;0.90;;;;;;;3.64;73.72;100455.73;103618;1274;94544;-67
2022/01/27 05:15:42;;;;;;;1.00;1.00;;;;;;;3.62;73.60;100445.54;103463;1274;138051;-67
2022/01/27 05:18:11;;;;;;;0.90;0.90;;;;;;;3.59;73.73;100443.44;103587;1274;108152;-66
2022/01/27 05:20:38;;;;;;;0.90;0.90;;;;;;;3.59;73.57;100443.77;104071;1274;99769;-67
2022/01/27 05:23:06;;;;;;;0.90;0.90;;;;;;;3.57;73.74;100437.80;103481;1274;138056;-65
2022/01/27 05:25:34;;;;;;;0.90;0.90;;;;;;;3.61;73.76;100436.59;103669;1274;94352;-67
2022/01/27 05:28:02;;;;;;;1.00;1.00;;;;;;;3.60;73.72;100435.54;103529;1274;137774;-66
2022/01/27 05:30:30;;;;;;;1.00;1.00;;;;;;;3.59;73.65;100442.02;103603;1274;107967;-67
2022/01/27 05:32:58;;;;;;;1.00;1.00;;;;;;;3.59;73.72;100434.66;103637;1274;99899;-65
2022/01/27 05:35:26;;;;;;;1.00;1.00;;;;;;;3.58;73.88;100436.05;104005;1274;138326;-67
2022/01/27 05:37:54;;;;;;;1.10;1.10;;;;;;;3.63;73.68;100434.48;103620;1274;94446;-65
2022/01/27 05:40:22;;;;;;;0.90;0.90;;;;;;;3.65;73.67;100434.31;103485;1273;137762;-67
2022/01/27 05:42:50;;;;;;;1.00;1.00;;;;;;;3.65;73.78;100432.91;103621;1274;108419;-67
2022/01/27 05:45:18;;;;;;;0.90;0.90;;;;;;;3.59;73.94;100433.08;103463;1274;138592;-65
2022/01/27 05:47:46;;;;;;;0.90;0.90;;;;;;;3.50;74.19;100433.04;103522;1274;109030;-67
2022/01/27 05:50:14;;;;;;;1.00;1.00;;;;;;;3.51;74.40;100427.42;103633;1274;94443;-67
2022/01/27 05:52:41;;;;;;;0.90;0.90;;;;;;;3.50;74.61;100424.44;103419;1274;138245;-69
2022/01/27 05:55:09;;;;;;;0.90;0.90;;;;;;;3.49;74.63;100417.77;103712;1274;108917;-65
2022/01/27 05:57:37;;;;;;;0.80;0.80;;;;;;;3.49;74.64;100414.60;103542;1274;138247;-67
2022/01/27 06:00:06;;;;;;;1.00;1.00;;;;;;;3.45;74.79;100422.49;103615;1274;108988;-67
2022/01/27 06:02:39;;;;;;;0.90;0.90;;;;;;;3.41;75.01;100425.46;103741;1274;94399;-67
2022/01/27 06:05:07;;;;;;;0.90;0.90;;;;;;;3.42;75.20;100415.11;103534;1274;138106;-67
2022/01/27 06:07:35;;;;;;;1.00;1.00;;;;;;;3.46;75.32;100415.66;103665;1274;108850;-66
2022/01/27 06:10:03;;;;;;;0.90;0.90;;;;;;;3.53;75.00;100409.70;103476;1274;138397;-65
2022/01/27 06:12:31;;;;;;;0.90;0.90;;;;;;;3.52;75.08;100405.31;103883;1274;108820;-65
2022/01/27 06:15:00;;;;;;;1.00;1.00;;;;;;;3.57;75.06;100402.17;104636;1274;94922;-63
2022/01/27 06:17:29;;;;;;;0.90;0.90;;;;;;;3.65;74.83;100399.19;103459;1274;141564;-67
2022/01/27 06:19:58;;;;;;;1.00;1.00;;;;;;;3.62;74.77;100402.02;103581;1274;108347;-67
2022/01/27 06:22:25;;;;;;;0.90;0.90;;;;;;;3.62;74.91;100397.27;103406;1274;138899;-67
2022/01/27 06:24:53;;;;;;;0.90;0.90;;;;;;;3.61;74.83;100397.26;103550;1275;108802;-67
2022/01/27 06:27:21;;;;;;;0.90;0.90;;;;;;;3.59;74.68;100401.83;103345;1274;139060;-68
2022/01/27 06:29:49;;;;;;;0.90;0.90;;;;;;;3.58;74.57;100393.73;103565;1274;95567;-68
2022/01/27 06:32:17;;;;;;;0.90;0.90;;;;;;;3.56;74.76;100384.61;103550;1274;107710;-65
2022/01/27 06:34:45;;;;;;;0.90;0.90;;;;;;;3.50;74.87;100376.87;103441;1274;138833;-66
2022/01/27 06:37:13;;;;;;;0.90;0.90;;;;;;;3.50;74.86;100369.48;103544;1274;108861;-67
2022/01/27 06:39:41;;;;;;;1.00;1.00;;;;;;;3.50;75.03;100367.22;103512;1274;139531;-67
2022/01/27 06:42:09;;;;;;;0.90;0.90;;;;;;;3.49;74.79;100358.96;103643;1274;94288;-67
2022/01/27 06:44:36;;;;;;;0.90;0.90;;;;;;;3.48;74.85;100357.56;103568;1274;108300;-67
2022/01/27 06:47:05;;;;;;;0.90;0.90;;;;;;;3.48;74.77;100357.74;103526;1274;137616;-67
2022/01/27 06:49:33;;;;;;;0.90;0.90;;;;;;;3.48;74.73;100352.30;103615;1274;108321;-67
2022/01/27 06:52:01;;;;;;;0.90;0.90;;;;;;;3.53;74.64;100348.80;103562;1274;138350;-67
2022/01/27 06:54:28;;;;;;;0.90;0.90;;;;;;;3.58;74.54;100344.06;103622;1274;94337;-67
2022/01/27 06:56:56;;;;;;;0.90;0.90;;;;;;;3.63;74.33;100351.09;103664;1274;108958;-67
2022/01/27 06:59:24;;;;;;;0.80;0.80;;;;;;;3.63;74.12;100353.55;103566;1274;138617;-67
2022/01/27 07:01:52;;;;;;;1.00;1.00;;;;;;;3.60;74.27;100351.09;103579;1274;108825;-67
2022/01/27 07:04:20;;;;;;;0.90;0.90;;;;;;;3.56;74.33;100348.97;103469;1274;138862;-65
2022/01/27 07:06:49;;;;;;;0.90;0.90;;;;;;;3.55;74.39;100344.23;103399;1274;95887;-65
2022/01/27 07:09:16;;;;;;;0.90;0.90;;;;;;;3.52;74.57;100342.48;103532;1274;138227;-66
2022/01/27 07:11:44;;;;;;;0.90;0.90;;;;;;;3.57;74.59;100338.62;103508;1275;99445;-64
2022/01/27 07:14:12;;;;;;;0.90;0.90;;;;;;;3.60;74.27;100338.98;103443;1276;109141;-68
2022/01/27 07:16:42;;;;;;;1.00;1.00;;;;;;;3.59;74.30;100341.43;103405;1274;138658;-67
2022/01/27 07:19:10;;;;;;;1.00;1.00;;;;;;;3.59;74.14;100338.80;103454;1274;94306;-68
2022/01/27 07:21:38;;;;;;;1.00;1.00;;;;;;;3.57;74.32;100346.52;103447;1274;138467;-67
2022/01/27 07:24:06;;;;;;;0.90;0.90;;;;;;;3.57;74.31;100344.05;103280;1274;99353;-67
2022/01/27 07:26:36;;;;;;;0.90;0.90;;;;;;;3.59;74.34;100341.09;103422;1274;108073;-67
2022/01/27 07:29:03;;;;;;;0.90;0.90;;;;;;;3.61;74.29;100337.40;103323;1274;138326;-67
2022/01/27 07:31:31;;;;;;;1.00;1.00;;;;;;;3.62;74.36;100332.30;103500;1274;94978;-69
2022/01/27 07:33:59;;;;;;;1.00;1.00;;;;;;;3.60;74.25;100332.30;103427;1274;138214;-67
2022/01/27 07:36:28;;;;;;;0.90;0.90;;;;;;;3.65;74.17;100335.81;103476;1274;99389;-68
2022/01/27 07:38:56;;;;;;;0.90;0.90;;;;;;;3.64;74.11;100332.13;104146;1274;108945;-67
2022/01/27 07:41:24;;;;;;;1.00;1.00;;;;;;;3.64;74.32;100331.61;103411;1274;138294;-67
2022/01/27 07:43:51;;;;;;;0.90;0.90;;;;;;;3.64;74.33;100332.48;103460;1276;94392;-65
2022/01/27 07:46:19;;;;;;;1.00;1.00;;;;;;;3.66;74.38;100333.88;103525;1274;138157;-67
2022/01/27 07:48:47;;;;;;;1.00;1.00;;;;;;;3.66;74.19;100340.20;104141;1274;100030;-65
2022/01/27 07:51:16;;;;;;;1.00;1.00;;;;;;;3.66;74.32;100338.10;103400;1274;137787;-67
2022/01/27 07:53:43;;;;;;;0.90;0.90;;;;;;;3.70;74.10;100336.70;103438;1274;94525;-66
2022/01/27 07:56:30;;;;;;;0.80;0.80;;;;;;;3.74;74.03;100333.89;103545;1275;95578;-67
2022/01/27 07:58:58;;;;;;;0.90;0.90;;;;;;;3.77;73.86;100328.45;103489;1274;138477;-67
2022/01/27 08:01:26;;;;;;;0.90;0.90;;;;;;;3.73;73.96;100320.19;103529;1274;100019;-67
2022/01/27 08:03:54;;;;;;;0.90;0.90;;;;;;;3.75;73.89;100313.52;103465;1274;138604;-67
2022/01/27 08:06:22;;;;;;;0.90;0.90;;;;;;;3.74;73.86;100304.05;103477;1274;94257;-65
2022/01/27 08:08:50;;;;;;;0.90;0.90;;;;;;;3.76;73.78;100301.92;103601;1274;94817;-66
2022/01/27 08:11:19;;;;;;;0.80;0.80;;;;;;;3.79;73.85;100298.95;103428;1274;138263;-66
2022/01/27 08:13:47;;;;;;;0.90;0.90;;;;;;;3.81;73.62;100302.28;103593;1274;99373;-65
2022/01/27 08:16:15;;;;;;;0.90;0.90;;;;;;;3.80;73.24;100301.94;103432;1274;138253;-67
2022/01/27 08:18:46;;;;;;;0.90;0.90;;;;;;;3.75;73.50;100297.54;103549;1274;95033;-66
2022/01/27 08:21:14;;;;;;;0.90;0.90;;;;;;;3.78;73.52;100286.83;103526;1274;137781;-67
2022/01/27 08:23:44;;;;;;;0.90;0.90;;;;;;;3.77;73.33;100280.34;103465;1275;108427;-67
2022/01/27 08:26:25;;;;;;;1.00;1.00;;;;;;;3.72;73.43;100268.21;103660;1279;99481;-66
2022/01/27 08:29:04;;;;;;;0.90;0.90;;;;;;;3.66;73.45;100262.23;103216;1277;138159;-67
2022/01/27 08:31:42;;;;;;;0.90;0.90;;;;;;;3.69;73.45;100255.25;103270;1279;94427;-65
2022/01/27 08:34:17;;;;;;;0.90;0.90;;;;;;;3.70;73.51;100241.36;103462;1277;137911;-67
2022/01/27 08:36:45;;;;;;;1.00;1.00;;;;;;;3.75;73.27;100239.59;103268;1276;109646;-66
2022/01/27 08:39:13;;;;;;;0.90;0.90;;;;;;;3.78;73.17;100239.77;103107;1276;138945;-66
2022/01/27 08:41:41;;;;;;;0.90;0.90;;;;;;;3.81;72.94;100238.00;103258;1277;108735;-67
2022/01/27 08:44:10;;;;;;;0.90;0.90;;;;;;;3.80;72.89;100231.16;103358;1276;94762;-68
2022/01/27 08:46:38;;;;;;;0.90;0.90;;;;;;;3.78;72.79;100230.27;103369;1276;137979;-70
2022/01/27 08:49:06;;;;;;;0.90;0.90;;;;;;;3.81;72.70;100232.57;103361;1276;108406;-66
2022/01/27 08:51:34;;;;;;;0.90;0.90;;;;;;;3.82;72.81;100231.34;103059;1277;141815;-68
2022/01/27 08:54:04;;;;;;;0.90;0.90;;;;;;;3.89;72.68;100227.99;103389;1276;108839;-67
2022/01/27 08:56:31;;;;;;;0.90;0.90;;;;;;;3.88;72.45;100222.20;103591;1276;94354;-65
2022/01/27 08:59:00;;;;;;;1.00;1.00;;;;;;;3.86;72.37;100230.98;103355;1276;139321;-64
2022/01/27 09:01:28;;;;;;;1.00;1.00;;;;;;;3.89;72.40;100236.59;103530;1276;108284;-65
2022/01/27 09:03:56;;;;;;;0.90;0.90;;;;;;;3.94;72.50;100236.41;103686;1276;138268;-65
2022/01/27 09:06:24;;;;;;;0.90;0.90;;;;;;;3.99;72.09;100227.61;103289;1275;108744;-65
2022/01/27 09:08:54;;;;;;;0.90;0.90;;;;;;;3.96;71.95;100229.73;103365;1276;94836;-67
2022/01/27 09:11:22;;;;;;;0.90;0.90;;;;;;;3.91;72.28;100228.69;103555;1277;137663;-67
2022/01/27 09:13:55;;;;;;;1.00;1.00;;;;;;;3.88;72.18;100222.38;103360;1276;108425;-67
2022/01/27 09:16:26;;;;;;;0.90;0.90;;;;;;;3.85;72.24;100219.39;104415;1276;138317;-67
2022/01/27 09:19:06;;;;;;;0.80;0.80;;;;;;;3.88;72.27;100218.33;103516;1276;109493;-65
2022/01/27 09:21:43;;;;;;;0.90;0.90;;;;;;;3.89;72.60;100211.13;103867;1276;137951;-66
2022/01/27 09:24:17;;;;;;;0.90;0.90;;;;;;;3.88;72.57;100207.79;103535;1277;98048;-66
2022/01/27 09:29:20;;;;;;;0.90;0.90;;;;;;;3.90;72.49;100191.45;103302;1276;138496;-67
2022/01/27 09:31:48;;;;;;;0.90;0.90;;;;;;;3.90;72.42;100193.38;103429;1275;108734;-66
2022/01/27 09:34:16;;;;;;;0.90;0.90;;;;;;;3.90;72.47;100187.05;103232;1274;138562;-64
2022/01/27 09:36:46;;;;;;;0.90;0.90;;;;;;;3.85;72.47;100184.61;103431;1274;95565;-65
2022/01/27 09:39:16;;;;;;;1.00;1.00;;;;;;;3.84;72.72;100184.27;104252;1277;138337;-66
2022/01/27 09:41:45;;;;;;;0.90;0.90;;;;;;;3.92;72.74;100176.52;103434;1275;99359;-66
2022/01/27 09:44:13;;;;;;;0.80;0.80;;;;;;;3.96;72.47;100174.40;103632;1274;108946;-65
2022/01/27 09:46:44;;;;;;;0.90;0.90;;;;;;;4.07;72.50;100172.42;103636;1275;138629;-65
2022/01/27 09:49:19;;;;;;;0.90;0.90;;;;;;;4.06;71.94;100169.27;103635;1274;94729;-66
2022/01/27 09:51:47;;;;;;;1.00;1.00;;;;;;;4.02;72.22;100169.98;103911;1275;138555;-66
2022/01/27 09:54:16;;;;;;;0.90;0.90;;;;;;;4.01;72.01;100169.29;103787;1274;99505;-64
2022/01/27 09:56:44;;;;;;;0.90;0.90;;;;;;;3.99;72.07;100166.66;103419;1275;108911;-67
2022/01/27 09:59:16;;;;;;;0.90;0.90;;;;;;;3.98;72.02;100163.50;103280;1277;138353;-66
2022/01/27 10:01:58;;;;;;;0.90;0.90;;;;;;;4.00;72.41;100163.30;104469;1275;94874;-66
2022/01/27 10:04:46;;;;;;;0.90;0.90;;;;;;;4.01;72.12;100154.89;104601;1274;137796;-66
2022/01/27 10:07:29;;;;;;;0.90;0.90;;;;;;;4.08;72.11;100149.41;103450;1274;99475;-67
2022/01/27 10:10:06;;;;;;;0.90;0.90;;;;;;;4.13;71.88;100144.83;103228;1275;140206;-65
2022/01/27 10:12:39;;;;;;;0.90;0.90;;;;;;;4.09;71.81;100137.47;104401;1274;94920;-68
2022/01/27 10:15:11;;;;;;;0.90;0.90;;;;;;;4.04;71.83;100138.55;106898;1273;94824;-67
2022/01/27 10:18:11;;;;;;;0.90;0.90;;;;;;;4.06;71.87;100132.21;106542;1274;137991;-67
2022/01/27 10:20:42;;;;;;;0.80;0.80;;;;;;;4.08;71.67;100122.20;103327;1274;99600;-67
2022/01/27 10:23:22;;;;;;;0.80;0.80;;;;;;;4.11;71.66;100114.44;103112;1275;138090;-66
2022/01/27 10:25:59;;;;;;;0.90;0.90;;;;;;;4.14;71.62;100114.41;103409;1275;95630;-66
2022/01/27 10:31:24;;;;;;;1.00;1.00;;;;;;;4.09;71.37;100117.27;103454;1275;108642;-67
2022/01/27 10:34:02;;;;;;;0.90;0.90;;;;;;;4.09;71.18;100113.40;104049;1276;138217;-67
2022/01/27 10:36:40;;;;;;;0.90;0.90;;;;;;;4.07;71.41;100105.14;103313;1275;108819;-65
2022/01/27 10:39:20;;;;;;;0.90;0.90;;;;;;;4.20;71.64;100102.10;103295;1277;94350;-66
2022/01/27 10:42:06;;;;;;;0.90;0.90;;;;;;;4.26;70.98;100098.37;107552;1274;138385;-67
2022/01/27 10:44:56;;;;;;;0.90;0.90;;;;;;;4.31;70.91;100098.00;103947;1274;108651;-68
2022/01/27 10:47:31;;;;;;;0.90;0.90;;;;;;;4.36;70.86;100090.41;103644;1274;139378;-67
2022/01/27 10:52:56;;;;;;;0.90;0.90;;;;;;;4.37;70.07;100086.36;103347;1274;138739;-67
2022/01/27 10:55:20;;;;;;;0.90;0.90;;;;;;;4.42;70.33;100073.86;103754;1274;94636;-67
2022/01/27 10:57:50;;;;;;;1.10;1.10;;;;;;;4.42;70.26;100070.17;103469;1274;137668;-68
2022/01/27 11:00:20;;;;;;;0.90;0.90;;;;;;;4.39;70.10;100065.61;103744;1274;99309;-67
2022/01/27 11:02:58;;;;;;;0.90;0.90;;;;;;;4.29;70.09;100055.64;105347;1274;109038;-67
2022/01/27 11:05:29;;;;;;;0.90;0.90;;;;;;;4.28;70.33;100056.72;104119;1274;138323;-67
2022/01/27 11:07:58;;;;;;;0.80;0.80;;;;;;;4.39;70.52;100050.15;103695;1274;94206;-67
2022/01/27 11:10:27;;;;;;;0.90;0.90;;;;;;;4.40;70.21;100046.09;103635;1274;138037;-67
2022/01/27 11:12:57;;;;;;;0.90;0.90;;;;;;;4.39;70.49;100035.38;103427;1277;100135;-65
2022/01/27 11:15:25;;;;;;;0.80;0.80;;;;;;;4.46;70.64;100031.63;103500;1274;109385;-66
2022/01/27 11:17:55;;;;;;;0.90;0.90;;;;;;;4.52;69.98;100028.25;103520;1274;137880;-65
2022/01/27 11:20:51;;;;;;;0.80;0.80;;;;;;;4.49;69.95;100026.67;103421;1274;94301;-67
2022/01/27 11:25:53;;;;;;;0.90;0.90;;;;;;;4.44;69.71;100011.27;103461;1276;99369;-66
2022/01/27 11:28:22;;;;;;;0.80;0.80;;;;;;;4.43;69.73;100009.52;103395;1274;138076;-64
2022/01/27 11:30:59;;;;;;;0.80;0.80;;;;;;;4.39;69.86;100000.92;103377;1277;94818;-67
2022/01/27 11:33:34;;;;;;;0.90;0.90;;;;;;;4.38;70.07;99997.06;103610;1274;94632;-66
2022/01/27 11:36:05;;;;;;;0.90;0.90;;;;;;;4.35;70.04;99993.05;103921;1274;138654;-64
2022/01/27 11:38:33;;;;;;;0.80;0.80;;;;;;;4.44;70.40;99990.34;103500;1275;99408;-66
2022/01/27 11:41:01;;;;;;;0.90;0.90;;;;;;;4.55;70.20;99986.21;103390;1274;137984;-66
2022/01/27 11:43:33;;;;;;;0.80;0.80;;;;;;;4.60;69.91;99986.71;103560;1276;94639;-67
2022/01/27 11:46:15;;;;;;;0.90;0.90;;;;;;;4.54;69.56;99980.41;103489;1275;137771;-64
2022/01/27 11:48:43;;;;;;;0.90;0.90;;;;;;;4.57;70.09;99975.30;103510;1276;108690;-66
2022/01/27 11:51:13;;;;;;;0.90;0.90;;;;;;;4.59;69.84;99975.27;103363;1277;99396;-65
2022/01/27 11:53:50;;;;;;;0.80;0.80;;;;;;;4.52;69.27;99972.34;103374;1274;137513;-67
2022/01/27 11:56:23;;;;;;;0.90;0.90;;;;;;;4.48;69.50;99970.97;103592;1274;94642;-66
2022/01/27 11:58:54;;;;;;;1.10;1.10;;;;;;;4.50;69.77;99969.73;103439;1274;138741;-66
2022/01/27 12:01:24;;;;;;;0.80;0.80;;;;;;;4.55;69.76;99966.70;104091;1274;108532;-66
2022/01/27 12:04:05;;;;;;;0.90;0.90;;;;;;;4.62;69.72;99968.39;103423;1274;138472;-65
2022/01/27 12:06:55;;;;;;;1.00;1.00;;;;;;;4.67;69.34;99966.77;103511;1274;108863;-66
2022/01/27 12:09:26;;;;;;;0.90;0.90;;;;;;;4.65;68.94;99957.29;103459;1274;94920;-67
2022/01/27 12:11:57;;;;;;;0.90;0.90;;;;;;;4.62;68.59;99953.98;103405;1276;137960;-65
2022/01/27 12:14:38;;;;;;;0.90;0.90;;;;;;;4.60;68.99;99948.36;103860;1276;108546;-71
2022/01/27 12:17:09;;;;;;;0.90;0.90;;;;;;;4.60;68.91;99945.04;104196;1274;137671;-69